createdAt,value
2017-09-21T00:00:42.162Z,90.30
2017-09-21T00:01:42.248Z,90.20
2017-09-21T00:02:42.124Z,90.39
2017-09-21T00:03:42.107Z,90.48
2017-09-21T00:04:42.089Z,90.30
2017-09-21T00:05:42.071Z,90.39
2017-09-21T00:06:42.058Z,90.39
2017-09-21T00:07:42.139Z,90.58
2017-09-21T00:08:42.016Z,90.39
2017-09-21T00:09:42.004Z,90.30
2017-09-21T00:10:41.980Z,90.30
2017-09-21T00:11:41.962Z,90.48
2017-09-21T00:12:41.943Z,90.58
2017-09-21T00:13:42.023Z,90.58
2017-09-21T00:14:41.911Z,90.48
2017-09-21T00:15:41.893Z,90.48
2017-09-21T00:16:41.869Z,90.30
2017-09-21T00:17:41.851Z,90.39
2017-09-21T00:18:41.834Z,90.30
2017-09-21T00:19:41.920Z,90.48
2017-09-21T00:20:41.795Z,90.48
2017-09-21T00:21:41.784Z,90.48
2017-09-21T00:22:41.760Z,90.77
2017-09-21T00:23:41.740Z,90.77
2017-09-21T00:24:41.725Z,90.39
2017-09-21T00:25:41.805Z,90.30
2017-09-21T00:26:41.686Z,90.39
2017-09-21T00:27:41.668Z,90.48
2017-09-21T00:28:41.656Z,90.48
2017-09-21T00:29:41.637Z,90.77
2017-09-21T00:30:41.618Z,90.58
2017-09-21T00:31:41.695Z,90.77
2017-09-21T00:32:41.574Z,90.58
2017-09-21T00:33:41.561Z,90.58
2017-09-21T00:34:41.538Z,90.77
2017-09-21T00:35:41.521Z,90.58
2017-09-21T00:36:41.501Z,90.58
2017-09-21T00:37:41.583Z,90.48
2017-09-21T00:38:41.469Z,90.58
2017-09-21T00:39:41.447Z,90.86
2017-09-21T00:40:41.425Z,90.67
2017-09-21T00:41:41.408Z,90.96
2017-09-21T00:42:41.390Z,91.15
2017-09-21T00:43:41.470Z,90.96
2017-09-21T00:44:41.357Z,91.24
2017-09-21T00:45:41.333Z,90.96
2017-09-21T00:46:41.315Z,91.05
2017-09-21T00:47:41.296Z,90.96
2017-09-21T00:48:41.290Z,91.53
2017-09-21T00:49:41.359Z,91.43
2017-09-21T00:50:41.490Z,91.43
2017-09-21T00:51:41.222Z,91.15
2017-09-21T00:52:41.203Z,91.34
2017-09-21T00:53:41.195Z,91.15
2017-09-21T00:54:41.168Z,91.53
2017-09-21T00:55:41.149Z,91.43
2017-09-21T00:56:41.279Z,91.62
2017-09-21T00:57:41.117Z,91.53
2017-09-21T00:58:41.097Z,91.53
2017-09-21T00:59:41.073Z,90.96
2017-09-21T01:00:41.064Z,90.96
2017-09-21T01:01:41.041Z,91.15
2017-09-21T01:02:41.119Z,90.96
2017-09-21T01:03:41.004Z,91.15
2017-09-21T01:04:40.986Z,91.15
2017-09-21T01:05:40.960Z,90.86
2017-09-21T01:06:40.976Z,90.86
2017-09-21T01:07:40.925Z,90.96
2017-09-21T01:08:41.054Z,90.86
2017-09-21T01:09:40.887Z,90.77
2017-09-21T01:10:40.868Z,91.15
2017-09-21T01:11:40.850Z,90.86
2017-09-21T01:12:40.830Z,91.05
2017-09-21T01:13:40.812Z,90.58
2017-09-21T01:14:40.899Z,90.77
2017-09-21T01:15:40.775Z,90.77
2017-09-21T01:16:40.761Z,90.77
2017-09-21T01:17:40.736Z,90.77
2017-09-21T01:18:40.717Z,90.67
2017-09-21T01:19:40.701Z,90.67
2017-09-21T01:20:40.979Z,90.96
2017-09-21T01:21:40.662Z,90.67
2017-09-21T01:22:40.648Z,90.58
2017-09-21T01:23:40.623Z,90.77
2017-09-21T01:24:40.605Z,90.30
2017-09-21T01:25:40.585Z,90.39
2017-09-21T01:26:40.717Z,90.58
2017-09-21T01:27:40.551Z,90.48
2017-09-21T01:28:40.534Z,90.11
2017-09-21T01:29:40.510Z,90.58
2017-09-21T01:30:40.492Z,90.53
2017-09-21T01:31:40.478Z,90.77
2017-09-21T01:32:40.715Z,90.16
2017-09-21T01:33:40.439Z,90.25
2017-09-21T01:34:40.415Z,90.25
2017-09-21T01:35:40.398Z,89.87
2017-09-21T01:36:40.386Z,90.25
2017-09-21T01:37:40.365Z,90.20
2017-09-21T01:38:40.440Z,90.16
2017-09-21T01:39:40.321Z,90.16
2017-09-21T01:40:40.300Z,90.25
2017-09-21T01:41:40.282Z,90.25
2017-09-21T01:42:40.264Z,89.87
2017-09-21T01:43:40.243Z,90.25
2017-09-21T01:44:40.326Z,90.72
2017-09-21T01:45:40.206Z,90.53
2017-09-21T01:46:40.188Z,90.63
2017-09-21T01:47:40.167Z,90.34
2017-09-21T01:48:40.148Z,90.63
2017-09-21T01:49:40.136Z,90.53
2017-09-21T01:50:40.211Z,90.44
2017-09-21T01:51:40.097Z,90.25
2017-09-21T01:52:40.072Z,90.25
2017-09-21T01:53:40.053Z,90.53
2017-09-21T01:54:40.034Z,90.53
2017-09-21T01:55:40.021Z,90.53
2017-09-21T01:56:40.097Z,90.63
2017-09-21T01:57:39.982Z,90.53
2017-09-21T01:58:39.959Z,90.53
2017-09-21T01:59:39.940Z,90.72
2017-09-21T02:00:39.925Z,90.72
2017-09-21T02:01:39.906Z,90.53
2017-09-21T02:02:39.982Z,90.72
2017-09-21T02:03:39.863Z,90.72
2017-09-21T02:04:39.842Z,90.44
2017-09-21T02:05:39.823Z,90.72
2017-09-21T02:06:39.807Z,90.63
2017-09-21T02:07:39.786Z,90.72
2017-09-21T02:08:39.866Z,90.53
2017-09-21T02:09:39.748Z,90.91
2017-09-21T02:10:39.730Z,91.10
2017-09-21T02:11:39.717Z,90.91
2017-09-21T02:12:39.690Z,90.72
2017-09-21T02:13:39.671Z,90.82
2017-09-21T02:14:39.753Z,91.10
2017-09-21T02:15:39.633Z,91.29
2017-09-21T02:16:39.614Z,90.82
2017-09-21T02:17:39.600Z,90.72
2017-09-21T02:18:39.575Z,90.63
2017-09-21T02:19:39.563Z,90.91
2017-09-21T02:20:39.637Z,91.10
2017-09-21T02:21:39.524Z,90.91
2017-09-21T02:22:39.499Z,90.72
2017-09-21T02:23:39.480Z,90.72
2017-09-21T02:24:39.463Z,90.63
2017-09-21T02:25:39.442Z,90.82
2017-09-21T02:26:39.524Z,90.63
2017-09-21T02:27:39.410Z,91.10
2017-09-21T02:28:39.390Z,91.01
2017-09-21T02:29:39.372Z,90.53
2017-09-21T02:30:39.347Z,90.82
2017-09-21T02:31:39.328Z,90.82
2017-09-21T02:32:39.415Z,91.01
2017-09-21T02:33:39.289Z,91.10
2017-09-21T02:34:39.269Z,91.20
2017-09-21T02:35:39.256Z,91.10
2017-09-21T02:36:39.231Z,91.01
2017-09-21T02:37:39.218Z,90.82
2017-09-21T02:38:39.292Z,91.20
2017-09-21T02:39:39.174Z,91.10
2017-09-21T02:40:39.154Z,90.91
2017-09-21T02:41:39.141Z,90.82
2017-09-21T02:42:39.119Z,91.10
2017-09-21T02:43:39.096Z,90.91
2017-09-21T02:44:39.177Z,91.20
2017-09-21T02:45:39.058Z,91.01
2017-09-21T02:46:39.063Z,91.10
2017-09-21T02:47:39.019Z,91.01
2017-09-21T02:48:39.005Z,91.39
2017-09-21T02:49:38.983Z,91.20
2017-09-21T02:50:39.068Z,91.20
2017-09-21T02:51:38.943Z,90.91
2017-09-21T02:52:38.930Z,91.10
2017-09-21T02:53:38.903Z,90.53
2017-09-21T02:54:38.992Z,90.72
2017-09-21T02:55:38.866Z,91.01
2017-09-21T02:56:38.946Z,90.82
2017-09-21T02:57:38.826Z,91.10
2017-09-21T02:58:38.809Z,90.72
2017-09-21T02:59:38.796Z,91.10
2017-09-21T03:00:38.775Z,90.91
2017-09-21T03:01:38.751Z,91.10
2017-09-21T03:02:38.832Z,91.10
2017-09-21T03:03:38.713Z,91.10
2017-09-21T03:04:38.692Z,90.63
2017-09-21T03:05:38.678Z,90.72
2017-09-21T03:06:38.660Z,90.25
2017-09-21T03:07:38.636Z,90.25
2017-09-21T03:08:38.717Z,90.63
2017-09-21T03:09:38.603Z,90.25
2017-09-21T03:10:38.577Z,90.63
2017-09-21T03:11:38.559Z,90.63
2017-09-21T03:12:38.540Z,90.34
2017-09-21T03:13:38.520Z,90.34
2017-09-21T03:14:38.601Z,90.53
2017-09-21T03:15:38.482Z,90.44
2017-09-21T03:16:38.460Z,90.72
2017-09-21T03:17:38.442Z,90.44
2017-09-21T03:18:38.423Z,90.25
2017-09-21T03:19:38.419Z,90.72
2017-09-21T03:20:38.489Z,90.72
2017-09-21T03:21:38.365Z,91.10
2017-09-21T03:22:38.346Z,90.91
2017-09-21T03:23:38.329Z,91.01
2017-09-21T03:24:38.313Z,90.91
2017-09-21T03:25:38.286Z,90.72
2017-09-21T03:26:38.369Z,91.01
2017-09-21T03:27:38.255Z,90.91
2017-09-21T03:28:38.234Z,90.82
2017-09-21T03:29:38.209Z,91.10
2017-09-21T03:30:38.192Z,90.91
2017-09-21T03:31:38.170Z,90.91
2017-09-21T03:32:38.251Z,90.72
2017-09-21T03:33:38.138Z,90.63
2017-09-21T03:34:38.113Z,90.53
2017-09-21T03:35:38.094Z,90.72
2017-09-21T03:36:38.074Z,91.01
2017-09-21T03:37:38.054Z,90.82
2017-09-21T03:38:38.135Z,91.01
2017-09-21T03:39:38.022Z,90.72
2017-09-21T03:40:37.996Z,90.63
2017-09-21T03:41:37.977Z,91.10
2017-09-21T03:42:37.957Z,90.82
2017-09-21T03:43:37.940Z,90.91
2017-09-21T03:44:38.018Z,91.10
2017-09-21T03:45:37.907Z,91.10
2017-09-21T03:46:37.886Z,91.10
2017-09-21T03:47:37.861Z,90.91
2017-09-21T03:48:37.840Z,90.91
2017-09-21T03:49:37.926Z,91.10
2017-09-21T03:50:37.905Z,91.10
2017-09-21T03:51:37.783Z,90.91
2017-09-21T03:52:37.768Z,91.10
2017-09-21T03:53:37.744Z,90.82
2017-09-21T03:54:37.723Z,91.10
2017-09-21T03:55:37.705Z,91.10
2017-09-21T03:56:37.785Z,91.10
2017-09-21T03:57:37.666Z,91.20
2017-09-21T03:58:37.752Z,90.91
2017-09-21T03:59:37.628Z,91.29
2017-09-21T04:00:37.613Z,91.10
2017-09-21T04:01:37.589Z,90.82
2017-09-21T04:02:37.670Z,90.63
2017-09-21T04:03:37.549Z,90.91
2017-09-21T04:04:37.530Z,90.72
2017-09-21T04:05:37.616Z,91.10
2017-09-21T04:06:37.492Z,91.10
2017-09-21T04:07:37.474Z,91.29
2017-09-21T04:08:37.551Z,90.91
2017-09-21T04:09:37.431Z,90.82
2017-09-21T04:10:37.415Z,90.91
2017-09-21T04:11:37.393Z,90.91
2017-09-21T04:12:37.373Z,90.63
2017-09-21T04:13:37.353Z,90.72
2017-09-21T04:14:37.434Z,91.10
2017-09-21T04:15:37.317Z,91.10
2017-09-21T04:16:37.301Z,91.20
2017-09-21T04:17:37.281Z,91.20
2017-09-21T04:18:37.261Z,91.20
2017-09-21T04:19:37.238Z,91.20
2017-09-21T04:20:37.316Z,91.10
2017-09-21T04:21:37.298Z,91.01
2017-09-21T04:22:37.176Z,90.63
2017-09-21T04:23:37.158Z,90.53
2017-09-21T04:24:37.143Z,90.53
2017-09-21T04:25:37.118Z,90.44
2017-09-21T04:26:37.207Z,90.44
2017-09-21T04:27:37.080Z,90.53
2017-09-21T04:28:37.065Z,90.63
2017-09-21T04:29:37.041Z,90.34
2017-09-21T04:30:37.023Z,90.63
2017-09-21T04:31:37.002Z,90.34
2017-09-21T04:32:37.081Z,90.44
2017-09-21T04:33:36.967Z,90.34
2017-09-21T04:34:36.941Z,90.63
2017-09-21T04:35:36.923Z,90.25
2017-09-21T04:36:36.902Z,90.72
2017-09-21T04:37:36.883Z,90.91
2017-09-21T04:38:36.969Z,90.53
2017-09-21T04:39:36.850Z,90.63
2017-09-21T04:40:36.825Z,90.44
2017-09-21T04:41:36.805Z,90.72
2017-09-21T04:42:36.791Z,91.10
2017-09-21T04:43:36.766Z,91.10
2017-09-21T04:44:36.845Z,91.10
2017-09-21T04:45:36.733Z,90.63
2017-09-21T04:46:36.709Z,90.82
2017-09-21T04:47:36.688Z,90.91
2017-09-21T04:48:36.768Z,90.63
2017-09-21T04:49:36.655Z,91.10
2017-09-21T04:50:36.730Z,90.63
2017-09-21T04:51:36.610Z,90.53
2017-09-21T04:52:36.591Z,90.53
2017-09-21T04:53:36.576Z,90.63
2017-09-21T04:54:36.551Z,91.10
2017-09-21T04:55:36.534Z,90.82
2017-09-21T04:56:36.613Z,91.01
2017-09-21T04:57:36.498Z,91.01
2017-09-21T04:58:36.476Z,90.91
2017-09-21T04:59:36.454Z,90.82
2017-09-21T05:00:36.439Z,91.10
2017-09-21T05:01:36.414Z,91.10
2017-09-21T05:02:36.495Z,91.01
2017-09-21T05:03:36.381Z,91.10
2017-09-21T05:04:36.356Z,91.01
2017-09-21T05:05:36.336Z,91.01
2017-09-21T05:06:36.318Z,91.05
2017-09-21T05:07:36.299Z,91.01
2017-09-21T05:08:36.379Z,91.10
2017-09-21T05:09:36.259Z,90.82
2017-09-21T05:10:36.245Z,91.58
2017-09-21T05:11:36.221Z,91.29
2017-09-21T05:12:36.205Z,91.10
2017-09-21T05:13:36.181Z,91.01
2017-09-21T05:14:36.260Z,91.10
2017-09-21T05:15:36.147Z,91.01
2017-09-21T05:16:36.126Z,91.01
2017-09-21T05:17:36.109Z,91.10
2017-09-21T05:18:36.083Z,91.10
2017-09-21T05:19:36.063Z,91.20
2017-09-21T05:20:36.143Z,91.01
2017-09-21T05:21:36.024Z,90.91
2017-09-21T05:22:36.004Z,90.72
2017-09-21T05:23:35.986Z,90.53
2017-09-21T05:24:35.965Z,90.82
2017-09-21T05:25:35.944Z,90.91
2017-09-21T05:26:36.025Z,90.72
2017-09-21T05:27:35.908Z,90.53
2017-09-21T05:28:35.886Z,90.63
2017-09-21T05:29:35.873Z,90.82
2017-09-21T05:30:35.847Z,90.53
2017-09-21T05:31:35.828Z,90.72
2017-09-21T05:32:35.909Z,90.53
2017-09-21T05:33:35.790Z,90.53
2017-09-21T05:34:35.770Z,90.53
2017-09-21T05:35:35.752Z,90.44
2017-09-21T05:36:35.730Z,90.44
2017-09-21T05:37:35.711Z,90.34
2017-09-21T05:38:35.793Z,90.25
2017-09-21T05:39:35.679Z,90.44
2017-09-21T05:40:35.758Z,90.63
2017-09-21T05:41:35.634Z,90.53
2017-09-21T05:42:35.618Z,90.25
2017-09-21T05:43:35.596Z,90.25
2017-09-21T05:44:35.677Z,90.25
2017-09-21T05:45:35.556Z,90.16
2017-09-21T05:46:35.538Z,90.16
2017-09-21T05:47:35.520Z,90.25
2017-09-21T05:48:35.498Z,90.16
2017-09-21T05:49:35.477Z,90.44
2017-09-21T05:50:35.564Z,90.44
2017-09-21T05:51:35.544Z,89.87
2017-09-21T05:52:35.426Z,90.53
2017-09-21T05:53:35.403Z,90.72
2017-09-21T05:54:35.381Z,90.63
2017-09-21T05:55:35.365Z,90.16
2017-09-21T05:56:35.343Z,90.06
2017-09-21T05:57:35.427Z,89.59
2017-09-21T05:58:35.304Z,89.97
2017-09-21T05:59:35.286Z,90.16
2017-09-21T06:00:35.271Z,90.63
2017-09-21T06:01:35.251Z,90.44
2017-09-21T06:02:35.227Z,90.25
2017-09-21T06:03:35.310Z,90.44
2017-09-21T06:04:35.189Z,89.97
2017-09-21T06:05:35.175Z,90.16
2017-09-21T06:06:35.156Z,89.87
2017-09-21T06:07:35.131Z,89.69
2017-09-21T06:08:35.212Z,89.97
2017-09-21T06:09:35.193Z,89.40
2017-09-21T06:10:35.073Z,89.59
2017-09-21T06:11:35.061Z,89.78
2017-09-21T06:12:35.042Z,89.78
2017-09-21T06:13:35.023Z,89.40
2017-09-21T06:14:35.004Z,89.21
2017-09-21T06:15:35.080Z,89.12
2017-09-21T06:16:34.958Z,88.17
2017-09-21T06:17:34.939Z,87.88
2017-09-21T06:18:34.926Z,87.70
2017-09-21T06:19:34.902Z,88.36
2017-09-21T06:20:34.881Z,88.07
2017-09-21T06:21:34.964Z,89.40
2017-09-21T06:22:34.851Z,90.72
2017-09-21T06:23:34.827Z,92.10
2017-09-21T06:24:34.809Z,94.46
2017-09-21T06:25:34.796Z,94.13
2017-09-21T06:26:34.776Z,93.27
2017-09-21T06:27:34.854Z,92.80
2017-09-21T06:28:34.735Z,92.76
2017-09-21T06:29:34.718Z,85.74
2017-09-21T06:30:34.701Z,83.70
2017-09-21T06:31:34.683Z,85.41
2017-09-21T06:32:34.670Z,76.03
2017-09-21T06:33:34.746Z,77.25
2017-09-21T06:34:34.629Z,79.28
2017-09-21T06:35:34.619Z,79.28
2017-09-21T06:36:34.597Z,77.52
2017-09-21T06:37:34.584Z,75.43
2017-09-21T06:38:34.561Z,73.10
2017-09-21T06:39:34.651Z,71.11
2017-09-21T06:40:34.527Z,70.00
2017-09-21T06:41:34.512Z,69.71
2017-09-21T06:42:34.497Z,65.35
2017-09-21T06:43:34.481Z,65.41
2017-09-21T06:44:34.463Z,65.56
2017-09-21T06:45:34.553Z,65.47
2017-09-21T06:46:34.532Z,68.79
2017-09-21T06:47:34.418Z,73.00
2017-09-21T06:48:34.402Z,73.14
2017-09-21T06:49:34.391Z,70.76
2017-09-21T06:50:34.371Z,63.64
2017-09-21T06:51:34.456Z,64.02
2017-09-21T06:52:34.341Z,64.56
2017-09-21T06:53:34.333Z,64.17
2017-09-21T06:54:34.411Z,66.52
2017-09-21T06:55:34.300Z,67.46
2017-09-21T06:56:34.279Z,69.65
2017-09-21T06:57:34.270Z,72.06
2017-09-21T06:58:34.348Z,70.76
2017-09-21T06:59:34.234Z,67.28
2017-09-21T07:00:34.320Z,64.43
2017-09-21T07:01:34.206Z,63.54
2017-09-21T07:02:34.191Z,63.17
2017-09-21T07:03:34.176Z,62.88
2017-09-21T07:04:34.260Z,62.59
2017-09-21T07:05:34.151Z,62.50
2017-09-21T07:06:34.132Z,62.50
2017-09-21T07:07:34.120Z,63.64
2017-09-21T07:08:34.106Z,65.16
2017-09-21T07:09:34.091Z,63.07
2017-09-21T07:10:34.177Z,59.65
2017-09-21T07:11:34.063Z,59.77
2017-09-21T07:12:34.047Z,60.66
2017-09-21T07:13:34.036Z,60.38
2017-09-21T07:14:34.021Z,57.04
2017-09-21T07:15:34.008Z,58.03
2017-09-21T07:16:34.094Z,56.22
2017-09-21T07:17:33.981Z,55.62
2017-09-21T07:18:34.067Z,57.74
2017-09-21T07:19:33.954Z,57.65
2017-09-21T07:20:33.942Z,58.25
2017-09-21T07:21:33.932Z,55.20
2017-09-21T07:22:34.014Z,53.67
2017-09-21T07:23:33.900Z,52.92
2017-09-21T07:24:33.892Z,53.75
2017-09-21T07:25:33.874Z,52.80
2017-09-21T07:26:33.861Z,53.24
2017-09-21T07:27:33.854Z,55.93
2017-09-21T07:28:33.935Z,56.98
2017-09-21T07:29:33.921Z,54.60
2017-09-21T07:30:33.808Z,51.65
2017-09-21T07:31:33.795Z,51.37
2017-09-21T07:32:33.782Z,51.37
2017-09-21T07:33:33.774Z,50.32
2017-09-21T07:34:33.857Z,51.46
2017-09-21T07:35:33.747Z,49.75
2017-09-21T07:36:33.736Z,48.16
2017-09-21T07:37:33.717Z,48.06
2017-09-21T07:38:33.703Z,46.18
2017-09-21T07:39:33.690Z,46.68
2017-09-21T07:40:33.781Z,48.25
2017-09-21T07:41:33.764Z,42.27
2017-09-21T07:42:33.652Z,37.99
2017-09-21T07:43:33.637Z,36.87
2017-09-21T07:44:33.625Z,35.93
2017-09-21T07:45:33.612Z,36.06
2017-09-21T07:46:33.601Z,34.47
2017-09-21T07:47:33.690Z,32.49
2017-09-21T07:48:33.579Z,30.20
2017-09-21T07:49:33.564Z,28.01
2017-09-21T07:50:33.552Z,26.86
2017-09-21T07:51:33.542Z,25.04
2017-09-21T07:52:33.537Z,24.56
2017-09-21T07:53:33.619Z,26.48
2017-09-21T07:54:33.609Z,26.78
2017-09-21T07:55:33.504Z,27.58
2017-09-21T07:56:33.487Z,26.45
2017-09-21T07:57:33.480Z,22.69
2017-09-21T07:58:33.469Z,23.47
2017-09-21T07:59:33.463Z,20.21
2017-09-21T08:00:33.560Z,19.07
2017-09-21T08:01:33.452Z,20.33
2017-09-21T08:02:33.439Z,18.88
2017-09-21T08:03:33.435Z,17.36
2017-09-21T08:04:33.432Z,18.32
2017-09-21T08:05:33.428Z,16.49
2017-09-21T08:06:33.518Z,18.03
2017-09-21T08:07:33.414Z,18.51
2017-09-21T08:08:33.407Z,18.02
2017-09-21T08:09:33.405Z,17.92
2017-09-21T08:10:33.403Z,18.50
2017-09-21T08:11:33.402Z,19.08
2017-09-21T08:12:33.497Z,20.03
2017-09-21T08:13:33.403Z,19.26
2017-09-21T08:14:33.397Z,20.60
2017-09-21T08:15:33.403Z,20.40
2017-09-21T08:16:33.399Z,18.88
2017-09-21T08:17:33.397Z,20.23
2017-09-21T08:18:33.498Z,20.80
2017-09-21T08:19:33.402Z,20.40
2017-09-21T08:20:33.408Z,20.30
2017-09-21T08:21:33.404Z,19.33
2017-09-21T08:22:33.410Z,22.12
2017-09-21T08:23:33.411Z,22.88
2017-09-21T08:24:33.515Z,22.88
2017-09-21T08:25:33.418Z,22.78
2017-09-21T08:26:33.423Z,22.09
2017-09-21T08:27:33.428Z,22.48
2017-09-21T08:28:33.437Z,23.71
2017-09-21T08:29:33.437Z,25.04
2017-09-21T08:30:33.542Z,25.87
2017-09-21T08:31:33.448Z,27.60
2017-09-21T08:32:33.455Z,27.78
2017-09-21T08:33:33.462Z,28.24
2017-09-21T08:34:33.463Z,29.08
2017-09-21T08:35:33.470Z,31.16
2017-09-21T08:36:33.579Z,31.35
2017-09-21T08:37:33.481Z,32.89
2017-09-21T08:38:33.493Z,33.94
2017-09-21T08:39:33.600Z,33.64
2017-09-21T08:40:33.500Z,35.33
2017-09-21T08:41:33.508Z,37.99
2017-09-21T08:42:33.615Z,35.70
2017-09-21T08:43:33.527Z,35.99
2017-09-21T08:44:33.526Z,37.40
2017-09-21T08:45:33.532Z,37.02
2017-09-21T08:46:33.543Z,39.12
2017-09-21T08:47:33.549Z,39.19
2017-09-21T08:48:33.648Z,39.00
2017-09-21T08:49:33.554Z,40.72
2017-09-21T08:50:33.558Z,42.80
2017-09-21T08:51:33.561Z,44.13
2017-09-21T08:52:33.565Z,43.73
2017-09-21T08:53:33.568Z,47.16
2017-09-21T08:54:33.670Z,47.54
2017-09-21T08:55:33.577Z,46.01
2017-09-21T08:56:33.573Z,45.92
2017-09-21T08:57:33.574Z,46.11
2017-09-21T08:58:33.575Z,47.54
2017-09-21T08:59:33.573Z,48.11
2017-09-21T09:00:33.673Z,46.20
2017-09-21T09:01:33.571Z,47.16
2017-09-21T09:02:33.571Z,47.34
2017-09-21T09:03:33.569Z,45.44
2017-09-21T09:04:33.567Z,46.58
2017-09-21T09:05:33.563Z,44.01
2017-09-21T09:06:33.660Z,43.54
2017-09-21T09:07:33.555Z,44.30
2017-09-21T09:08:33.554Z,45.83
2017-09-21T09:09:33.549Z,45.63
2017-09-21T09:10:33.546Z,48.21
2017-09-21T09:11:33.539Z,48.39
2017-09-21T09:12:33.634Z,47.06
2017-09-21T09:13:33.529Z,46.58
2017-09-21T09:14:33.522Z,47.25
2017-09-21T09:15:33.518Z,48.49
2017-09-21T09:16:33.512Z,48.21
2017-09-21T09:17:33.510Z,47.34
2017-09-21T09:18:33.601Z,44.68
2017-09-21T09:19:33.600Z,44.32
2017-09-21T09:20:33.489Z,44.51
2017-09-21T09:21:33.484Z,43.91
2017-09-21T09:22:33.472Z,45.73
2017-09-21T09:23:33.470Z,46.87
2017-09-21T09:24:33.562Z,46.68
2017-09-21T09:25:33.451Z,47.34
2017-09-21T09:26:33.441Z,46.11
2017-09-21T09:27:33.439Z,47.54
2017-09-21T09:28:33.430Z,45.92
2017-09-21T09:29:33.427Z,46.20
2017-09-21T09:30:33.511Z,47.25
2017-09-21T09:31:33.401Z,46.68
2017-09-21T09:32:33.392Z,45.54
2017-09-21T09:33:33.384Z,48.18
2017-09-21T09:34:33.377Z,45.32
2017-09-21T09:35:33.366Z,45.99
2017-09-21T09:36:33.463Z,45.25
2017-09-21T09:37:33.351Z,48.68
2017-09-21T09:38:33.340Z,46.39
2017-09-21T09:39:33.337Z,47.44
2017-09-21T09:40:33.321Z,46.30
2017-09-21T09:41:33.312Z,46.11
2017-09-21T09:42:33.402Z,46.01
2017-09-21T09:43:33.294Z,47.63
2017-09-21T09:44:33.288Z,45.92
2017-09-21T09:45:33.273Z,48.39
2017-09-21T09:46:33.366Z,45.83
2017-09-21T09:47:33.260Z,48.39
2017-09-21T09:48:33.349Z,46.68
2017-09-21T09:49:33.241Z,44.87
2017-09-21T09:50:33.225Z,44.13
2017-09-21T09:51:33.215Z,44.13
2017-09-21T09:52:33.205Z,46.13
2017-09-21T09:53:33.197Z,43.65
2017-09-21T09:54:33.289Z,47.18
2017-09-21T09:55:33.177Z,45.28
2017-09-21T09:56:33.166Z,44.34
2017-09-21T09:57:33.257Z,44.60
2017-09-21T09:58:33.147Z,42.70
2017-09-21T09:59:33.138Z,44.73
2017-09-21T10:00:33.227Z,42.82
2017-09-21T10:01:33.117Z,41.75
2017-09-21T10:02:33.115Z,42.13
2017-09-21T10:03:33.102Z,44.42
2017-09-21T10:04:33.086Z,44.80
2017-09-21T10:05:33.083Z,44.60
2017-09-21T10:06:33.173Z,42.70
2017-09-21T10:07:33.058Z,41.56
2017-09-21T10:08:33.052Z,39.84
2017-09-21T10:09:33.036Z,42.80
2017-09-21T10:10:33.027Z,45.65
2017-09-21T10:11:33.017Z,47.02
2017-09-21T10:12:33.107Z,44.53
2017-09-21T10:13:32.995Z,44.27
2017-09-21T10:14:32.991Z,44.38
2017-09-21T10:15:32.976Z,40.47
2017-09-21T10:16:32.965Z,39.83
2017-09-21T10:17:32.957Z,36.68
2017-09-21T10:18:33.046Z,39.14
2017-09-21T10:19:32.937Z,37.04
2017-09-21T10:20:32.925Z,38.54
2017-09-21T10:21:32.916Z,39.12
2017-09-21T10:22:32.906Z,40.17
2017-09-21T10:23:32.899Z,40.55
2017-09-21T10:24:32.988Z,40.91
2017-09-21T10:25:32.883Z,44.34
2017-09-21T10:26:32.873Z,42.05
2017-09-21T10:27:32.863Z,42.82
2017-09-21T10:28:32.848Z,43.29
2017-09-21T10:29:32.843Z,42.84
2017-09-21T10:30:32.934Z,43.41
2017-09-21T10:31:32.821Z,43.33
2017-09-21T10:32:32.809Z,38.18
2017-09-21T10:33:32.798Z,40.86
2017-09-21T10:34:32.890Z,40.66
2017-09-21T10:35:32.782Z,40.86
2017-09-21T10:36:32.875Z,41.91
2017-09-21T10:37:32.761Z,39.42
2017-09-21T10:38:32.751Z,37.99
2017-09-21T10:39:32.742Z,39.32
2017-09-21T10:40:32.730Z,40.47
2017-09-21T10:41:32.827Z,38.18
2017-09-21T10:42:32.813Z,39.40
2017-09-21T10:43:32.711Z,40.86
2017-09-21T10:44:32.693Z,40.76
2017-09-21T10:45:32.682Z,40.86
2017-09-21T10:46:32.679Z,39.42
2017-09-21T10:47:32.664Z,36.27
2017-09-21T10:48:32.753Z,35.89
2017-09-21T10:49:32.645Z,39.71
2017-09-21T10:50:32.641Z,36.77
2017-09-21T10:51:32.626Z,35.72
2017-09-21T10:52:32.615Z,36.19
2017-09-21T10:53:32.606Z,35.91
2017-09-21T10:54:32.704Z,37.24
2017-09-21T10:55:32.594Z,38.30
2017-09-21T10:56:32.578Z,38.58
2017-09-21T10:57:32.571Z,38.49
2017-09-21T10:58:32.567Z,36.87
2017-09-21T10:59:32.557Z,37.73
2017-09-21T11:00:32.642Z,36.87
2017-09-21T11:01:32.537Z,37.24
2017-09-21T11:02:32.528Z,36.68
2017-09-21T11:03:32.518Z,39.06
2017-09-21T11:04:32.509Z,37.92
2017-09-21T11:05:32.494Z,40.61
2017-09-21T11:06:32.591Z,34.97
2017-09-21T11:07:32.477Z,32.28
2017-09-21T11:08:32.469Z,34.48
2017-09-21T11:09:32.462Z,36.10
2017-09-21T11:10:32.450Z,36.37
2017-09-21T11:11:32.445Z,35.70
2017-09-21T11:12:32.529Z,37.04
2017-09-21T11:13:32.420Z,39.61
2017-09-21T11:14:32.412Z,39.61
2017-09-21T11:15:32.408Z,40.86
2017-09-21T11:16:32.394Z,40.86
2017-09-21T11:17:32.400Z,40.01
2017-09-21T11:18:32.476Z,40.30
2017-09-21T11:19:32.369Z,38.68
2017-09-21T11:20:32.357Z,35.72
2017-09-21T11:21:32.351Z,36.08
2017-09-21T11:22:32.342Z,36.85
2017-09-21T11:23:32.333Z,38.18
2017-09-21T11:24:32.417Z,40.40
2017-09-21T11:25:32.310Z,39.92
2017-09-21T11:26:32.400Z,37.24
2017-09-21T11:27:32.296Z,39.44
2017-09-21T11:28:32.286Z,39.06
2017-09-21T11:29:32.278Z,40.40
2017-09-21T11:30:32.364Z,37.07
2017-09-21T11:31:32.255Z,37.05
2017-09-21T11:32:32.245Z,38.41
2017-09-21T11:33:32.235Z,39.56
2017-09-21T11:34:32.226Z,35.93
2017-09-21T11:35:32.217Z,36.31
2017-09-21T11:36:32.306Z,35.16
2017-09-21T11:37:32.204Z,37.07
2017-09-21T11:38:32.191Z,35.45
2017-09-21T11:39:32.181Z,35.93
2017-09-21T11:40:32.173Z,37.46
2017-09-21T11:41:32.161Z,36.29
2017-09-21T11:42:32.253Z,37.05
2017-09-21T11:43:32.150Z,35.33
2017-09-21T11:44:32.136Z,36.19
2017-09-21T11:45:32.126Z,36.00
2017-09-21T11:46:32.115Z,38.01
2017-09-21T11:47:32.108Z,39.35
2017-09-21T11:48:32.198Z,40.13
2017-09-21T11:49:32.089Z,35.74
2017-09-21T11:50:32.085Z,35.75
2017-09-21T11:51:32.071Z,36.33
2017-09-21T11:52:32.061Z,35.28
2017-09-21T11:53:32.058Z,34.80
2017-09-21T11:54:32.145Z,36.23
2017-09-21T11:55:32.035Z,36.43
2017-09-21T11:56:32.027Z,37.09
2017-09-21T11:57:32.016Z,37.48
2017-09-21T11:58:32.015Z,36.61
2017-09-21T11:59:32.001Z,34.88
2017-09-21T12:00:32.096Z,36.21
2017-09-21T12:01:31.993Z,36.41
2017-09-21T12:02:31.979Z,36.88
2017-09-21T12:03:31.970Z,35.45
2017-09-21T12:04:31.955Z,36.41
2017-09-21T12:05:31.951Z,37.92
2017-09-21T12:06:32.037Z,37.15
2017-09-21T12:07:31.930Z,36.19
2017-09-21T12:08:31.920Z,36.96
2017-09-21T12:09:31.911Z,38.10
2017-09-21T12:10:31.900Z,38.30
2017-09-21T12:11:31.995Z,39.64
2017-09-21T12:12:31.883Z,40.69
2017-09-21T12:13:31.975Z,43.65
2017-09-21T12:14:31.865Z,41.47
2017-09-21T12:15:31.858Z,39.27
2017-09-21T12:16:31.847Z,40.61
2017-09-21T12:17:31.839Z,41.95
2017-09-21T12:18:31.828Z,40.03
2017-09-21T12:19:31.919Z,40.99
2017-09-21T12:20:31.810Z,39.27
2017-09-21T12:21:31.806Z,40.13
2017-09-21T12:22:31.791Z,39.18
2017-09-21T12:23:31.788Z,40.23
2017-09-21T12:24:31.774Z,38.32
2017-09-21T12:25:31.864Z,41.47
2017-09-21T12:26:31.756Z,41.18
2017-09-21T12:27:31.747Z,39.37
2017-09-21T12:28:31.739Z,40.70
2017-09-21T12:29:31.729Z,40.99
2017-09-21T12:30:31.725Z,39.18
2017-09-21T12:31:31.816Z,41.47
2017-09-21T12:32:31.706Z,42.61
2017-09-21T12:33:31.692Z,38.79
2017-09-21T12:34:31.682Z,39.47
2017-09-21T12:35:31.673Z,40.89
2017-09-21T12:36:31.666Z,40.99
2017-09-21T12:37:31.761Z,41.28
2017-09-21T12:38:31.648Z,39.27
2017-09-21T12:39:31.638Z,39.65
2017-09-21T12:40:31.627Z,40.23
2017-09-21T12:41:31.624Z,40.42
2017-09-21T12:42:31.615Z,42.16
2017-09-21T12:43:31.701Z,42.07
2017-09-21T12:44:31.592Z,38.71
2017-09-21T12:45:31.584Z,37.09
2017-09-21T12:46:31.574Z,38.32
2017-09-21T12:47:31.567Z,39.27
2017-09-21T12:48:31.563Z,37.55
2017-09-21T12:49:31.653Z,38.51
2017-09-21T12:50:31.540Z,37.46
2017-09-21T12:51:31.528Z,35.93
2017-09-21T12:52:31.520Z,36.98